createdAt,value
2023-08-26T00:00:46.897Z,95.18
2023-08-26T00:03:15.620Z,94.60
2023-08-26T00:05:44.650Z,94.91
2023-08-26T00:08:12.598Z,94.04
2023-08-26T00:10:40.879Z,94.39
2023-08-26T00:13:08.804Z,90.45
2023-08-26T00:15:36.818Z,88.15
2023-08-26T00:18:10.387Z,92.49
2023-08-26T00:20:39.642Z,95.32
2023-08-26T00:23:08.106Z,94.56
2023-08-26T00:25:36.085Z,92.65
2023-08-26T00:28:04.563Z,91.94
2023-08-26T00:30:32.907Z,94.00
2023-08-26T00:33:01.028Z,95.38
2023-08-26T00:35:29.073Z,95.69
2023-08-26T00:37:57.823Z,97.15
2023-08-26T00:40:26.101Z,96.29
2023-08-26T00:42:56.320Z,97.06
2023-08-26T00:45:24.670Z,97.87
2023-08-26T00:47:52.891Z,98.39
2023-08-26T00:50:21.918Z,99.44
2023-08-26T00:52:50.246Z,100.00
2023-08-26T00:55:18.528Z,100.00
2023-08-26T00:57:46.849Z,100.00
2023-08-26T01:00:15.842Z,100.00
2023-08-26T01:02:44.245Z,100.00
2023-08-26T01:05:12.316Z,100.00
2023-08-26T01:07:41.172Z,100.00
2023-08-26T01:10:09.873Z,100.00
2023-08-26T01:13:01.198Z,100.00
2023-08-26T01:15:32.378Z,100.00
2023-08-26T01:18:07.121Z,100.00
2023-08-26T01:20:36.605Z,100.00
2023-08-26T01:23:07.645Z,100.00
2023-08-26T01:25:36.017Z,100.00
2023-08-26T01:28:04.028Z,100.00
2023-08-26T01:30:32.834Z,100.00
2023-08-26T01:33:22.844Z,100.00
2023-08-26T01:35:58.763Z,100.00
2023-08-26T01:38:28.306Z,100.00
2023-08-26T01:40:57.661Z,100.00
2023-08-26T01:43:26.732Z,100.00
2023-08-26T01:45:55.031Z,100.00
2023-08-26T01:48:23.049Z,100.00
2023-08-26T01:50:50.961Z,100.00
2023-08-26T01:53:19.741Z,98.83
2023-08-26T01:55:47.743Z,98.89
2023-08-26T01:58:15.971Z,99.97
2023-08-26T02:00:44.415Z,100.00
2023-08-26T02:03:12.889Z,100.00
2023-08-26T02:05:40.693Z,100.00
2023-08-26T02:08:09.262Z,99.35
2023-08-26T02:10:37.456Z,98.48
2023-08-26T02:13:05.387Z,98.10
2023-08-26T02:15:35.960Z,96.47
2023-08-26T02:18:04.655Z,95.18
2023-08-26T02:20:32.606Z,96.15
2023-08-26T02:23:00.507Z,97.46
2023-08-26T02:25:30.044Z,97.18
2023-08-26T02:27:58.359Z,96.28
2023-08-26T02:30:26.653Z,96.53
2023-08-26T02:32:56.160Z,98.05
2023-08-26T02:35:24.571Z,99.46
2023-08-26T02:37:52.479Z,100.00
2023-08-26T02:40:20.803Z,100.00
2023-08-26T02:42:48.730Z,100.00
2023-08-26T02:45:16.697Z,100.00
2023-08-26T02:47:47.679Z,100.00
2023-08-26T02:50:18.092Z,100.00
2023-08-26T02:52:46.489Z,100.00
2023-08-26T02:55:14.450Z,100.00
2023-08-26T02:57:42.480Z,100.00
2023-08-26T03:00:11.526Z,100.00
2023-08-26T03:02:39.868Z,100.00
2023-08-26T03:05:09.263Z,100.00
2023-08-26T03:07:37.765Z,100.00
2023-08-26T03:10:06.310Z,100.00
2023-08-26T03:12:34.895Z,100.00
2023-08-26T03:15:04.029Z,100.00
2023-08-26T03:17:32.787Z,100.00
2023-08-26T03:20:00.939Z,100.00
2023-08-26T03:22:35.870Z,100.00
2023-08-26T03:25:09.221Z,100.00
2023-08-26T03:27:46.942Z,97.36
2023-08-26T03:30:15.016Z,93.76
2023-08-26T03:32:43.344Z,92.39
2023-08-26T03:35:11.329Z,90.65
2023-08-26T03:37:39.307Z,89.17
2023-08-26T03:40:10.410Z,87.46
2023-08-26T03:42:49.924Z,85.59
2023-08-26T03:45:43.342Z,85.61
2023-08-26T03:48:11.728Z,83.50
2023-08-26T03:50:50.993Z,82.44
2023-08-26T03:53:24.724Z,81.76
2023-08-26T03:55:53.089Z,81.42
2023-08-26T03:58:21.036Z,80.65
2023-08-26T04:00:49.561Z,80.17
2023-08-26T04:03:17.987Z,79.59
2023-08-26T04:05:46.363Z,79.23
2023-08-26T04:08:14.277Z,79.24
2023-08-26T04:10:42.234Z,79.28
2023-08-26T04:13:22.060Z,79.19
2023-08-26T04:15:50.093Z,78.96
2023-08-26T04:18:18.209Z,78.62
2023-08-26T04:20:46.161Z,77.90
2023-08-26T04:23:13.973Z,78.13
2023-08-26T04:25:43.017Z,77.41
2023-08-26T04:28:13.277Z,76.75
2023-08-26T04:30:42.057Z,75.79
2023-08-26T04:33:10.642Z,75.93
2023-08-26T04:35:38.826Z,74.53
2023-08-26T04:38:06.789Z,74.69
2023-08-26T04:40:35.716Z,75.64
2023-08-26T04:43:05.198Z,75.32
2023-08-26T04:45:33.077Z,74.98
2023-08-26T04:48:01.514Z,74.71
2023-08-26T04:50:30.558Z,74.42
2023-08-26T04:52:58.996Z,74.18
2023-08-26T04:55:27.304Z,73.30
2023-08-26T04:57:55.442Z,73.19
2023-08-26T05:00:24.026Z,72.62
2023-08-26T05:02:52.606Z,72.35
2023-08-26T05:05:21.055Z,71.91
2023-08-26T05:07:49.185Z,71.54
2023-08-26T05:10:17.358Z,70.75
2023-08-26T05:12:45.237Z,70.60
2023-08-26T05:15:13.322Z,70.63
2023-08-26T05:17:42.475Z,70.75
2023-08-26T05:20:10.784Z,70.29
2023-08-26T05:22:50.978Z,69.55
2023-08-26T05:25:20.362Z,68.61
2023-08-26T05:27:49.468Z,67.56
2023-08-26T05:30:19.594Z,66.73
2023-08-26T05:32:49.331Z,66.06
2023-08-26T05:35:17.411Z,65.90
2023-08-26T05:37:46.680Z,65.57
2023-08-26T05:40:16.218Z,66.08
2023-08-26T05:42:44.178Z,66.09
2023-08-26T05:45:12.062Z,66.38
2023-08-26T05:47:40.484Z,66.38
2023-08-26T05:50:08.785Z,66.46
2023-08-26T05:52:36.705Z,65.84
2023-08-26T05:55:05.268Z,65.24
2023-08-26T05:57:33.261Z,64.00
2023-08-26T06:00:01.577Z,62.96
2023-08-26T06:02:33.819Z,62.44
2023-08-26T06:05:03.667Z,60.56
2023-08-26T06:07:31.730Z,62.78
2023-08-26T06:09:59.782Z,63.11
2023-08-26T06:12:28.136Z,62.11
2023-08-26T06:14:56.680Z,65.31
2023-08-26T06:17:24.670Z,61.60
2023-08-26T06:19:53.190Z,64.09
2023-08-26T06:22:21.388Z,62.78
2023-08-26T06:24:49.292Z,62.00
2023-08-26T06:27:17.776Z,61.09
2023-08-26T06:29:56.879Z,61.01
2023-08-26T06:32:25.527Z,62.05
2023-08-26T06:34:54.793Z,60.29
2023-08-26T06:37:22.818Z,59.09
2023-08-26T06:39:51.536Z,58.71
2023-08-26T06:42:19.734Z,53.47
2023-08-26T06:44:52.747Z,60.31
2023-08-26T06:47:22.114Z,59.29
2023-08-26T06:49:50.599Z,61.57
2023-08-26T06:52:18.520Z,54.59
2023-08-26T06:54:47.059Z,61.88
2023-08-26T06:57:15.045Z,59.74
2023-08-26T07:02:32.095Z,57.89
2023-08-26T07:05:00.209Z,51.90
2023-08-26T07:07:28.792Z,55.57
2023-08-26T07:09:56.856Z,60.79
2023-08-26T07:12:24.827Z,59.25
2023-08-26T07:14:53.419Z,59.14
2023-08-26T07:17:21.448Z,48.57
2023-08-26T07:19:49.442Z,58.31
2023-08-26T07:22:20.339Z,55.53
2023-08-26T07:24:55.330Z,51.11
2023-08-26T07:27:24.818Z,58.94
2023-08-26T07:29:52.849Z,49.72
2023-08-26T07:32:20.985Z,54.13
2023-08-26T07:34:52.634Z,53.11
2023-08-26T07:37:20.537Z,50.39
2023-08-26T07:39:51.150Z,47.89
2023-08-26T07:42:19.565Z,55.13
2023-08-26T07:44:47.869Z,43.03
2023-08-26T07:50:02.065Z,54.83
2023-08-26T07:52:31.539Z,59.88
2023-08-26T07:54:59.431Z,47.64
2023-08-26T07:57:27.778Z,60.72
2023-08-26T07:59:55.648Z,61.27
2023-08-26T08:02:23.946Z,52.32
2023-08-26T08:04:52.614Z,48.98
2023-08-26T08:07:23.349Z,49.89
2023-08-26T08:09:51.445Z,58.68
2023-08-26T08:12:19.951Z,49.02
2023-08-26T08:14:47.967Z,49.77
2023-08-26T08:17:15.927Z,47.47
2023-08-26T08:19:47.165Z,47.58
2023-08-26T08:22:19.962Z,48.02
2023-08-26T08:24:49.244Z,51.23
2023-08-26T08:27:17.425Z,48.10
2023-08-26T08:29:46.307Z,65.11
2023-08-26T08:32:14.696Z,58.57
2023-08-26T08:34:42.861Z,47.34
2023-08-26T08:37:10.977Z,50.14
2023-08-26T08:39:39.676Z,52.11
2023-08-26T08:42:11.213Z,52.66
2023-08-26T08:44:43.502Z,48.55
2023-08-26T08:47:12.390Z,64.33
2023-08-26T08:49:43.018Z,46.87
2023-08-26T08:52:12.926Z,47.69
2023-08-26T08:54:42.422Z,48.68
2023-08-26T08:57:14.597Z,48.43
2023-08-26T08:59:44.204Z,50.15
2023-08-26T09:02:13.577Z,48.68
2023-08-26T09:04:44.576Z,50.08
2023-08-26T09:07:17.552Z,51.69
2023-08-26T09:09:56.553Z,51.83
2023-08-26T09:12:32.460Z,53.11
2023-08-26T09:15:00.811Z,49.79
2023-08-26T09:17:34.272Z,52.42
2023-08-26T09:20:04.340Z,52.93
2023-08-26T09:22:36.177Z,59.76
2023-08-26T09:25:06.843Z,56.17
2023-08-26T09:27:42.108Z,52.80
2023-08-26T09:30:10.911Z,65.83
2023-08-26T09:32:42.950Z,52.33
2023-08-26T09:35:16.662Z,59.61
2023-08-26T09:37:49.729Z,63.06
2023-08-26T09:40:24.884Z,52.38
2023-08-26T09:42:54.506Z,51.53
2023-08-26T09:45:23.185Z,53.08
2023-08-26T09:47:53.256Z,62.34
2023-08-26T09:50:34.605Z,56.47
2023-08-26T09:53:03.690Z,64.99
2023-08-26T09:55:34.161Z,59.00
2023-08-26T09:58:02.590Z,57.40
2023-08-26T10:00:35.164Z,61.91
2023-08-26T10:03:07.906Z,60.22
2023-08-26T10:05:41.495Z,64.50
2023-08-26T10:08:12.044Z,54.81
2023-08-26T10:10:54.429Z,64.80
2023-08-26T10:13:27.266Z,57.59
2023-08-26T10:16:00.265Z,59.33
2023-08-26T10:18:56.212Z,65.50
2023-08-26T10:21:25.589Z,61.97
2023-08-26T10:23:54.236Z,64.03
2023-08-26T10:26:22.793Z,58.15
2023-08-26T10:28:51.924Z,57.18
2023-08-26T10:31:21.220Z,63.86
2023-08-26T10:34:15.989Z,60.74
2023-08-26T10:36:51.083Z,61.80
2023-08-26T10:39:22.912Z,64.72
2023-08-26T10:42:23.366Z,58.77
2023-08-26T10:45:00.798Z,66.99
2023-08-26T10:47:46.765Z,61.08
2023-08-26T10:50:23.933Z,57.68
2023-08-26T10:53:16.041Z,60.51
2023-08-26T10:55:44.773Z,58.93
2023-08-26T10:58:18.228Z,59.02
2023-08-26T11:00:49.992Z,58.87
2023-08-26T11:03:21.975Z,64.43
2023-08-26T11:06:12.913Z,58.28
2023-08-26T11:08:55.149Z,67.63
2023-08-26T11:11:23.748Z,59.88
2023-08-26T11:13:52.918Z,64.58
2023-08-26T11:16:23.896Z,59.89
2023-08-26T11:18:56.743Z,60.15
2023-08-26T11:21:25.675Z,63.72
2023-08-26T11:23:58.454Z,63.14
2023-08-26T11:26:27.278Z,66.87
2023-08-26T11:28:56.068Z,63.58
2023-08-26T11:31:26.557Z,67.35
2023-08-26T11:33:56.524Z,66.62
2023-08-26T11:36:24.944Z,68.81
2023-08-26T11:38:54.280Z,71.70
2023-08-26T11:41:23.746Z,68.69
2023-08-26T11:43:52.303Z,67.97
2023-08-26T11:46:21.015Z,68.48
2023-08-26T11:48:49.825Z,67.88
2023-08-26T11:51:18.048Z,70.50
2023-08-26T11:53:46.074Z,68.94
2023-08-26T11:56:14.459Z,68.58
2023-08-26T11:58:42.801Z,69.42
2023-08-26T12:01:15.088Z,69.46
2023-08-26T12:03:45.755Z,68.02
2023-08-26T12:06:16.351Z,69.39
2023-08-26T12:08:53.182Z,70.68
2023-08-26T12:11:22.400Z,70.55
2023-08-26T12:13:51.738Z,70.58
2023-08-26T12:16:20.034Z,67.42
2023-08-26T12:18:49.870Z,69.93
2023-08-26T12:21:18.874Z,68.59
2023-08-26T12:23:48.011Z,72.13
2023-08-26T12:26:16.470Z,71.53
2023-08-26T12:28:45.320Z,71.45
2023-08-26T12:31:14.735Z,70.11
2023-08-26T12:33:58.115Z,69.86
2023-08-26T12:36:30.682Z,68.55
2023-08-26T12:39:02.575Z,65.34
2023-08-26T12:41:31.488Z,68.50
2023-08-26T12:44:02.759Z,66.80
2023-08-26T12:46:32.102Z,65.40
2023-08-26T12:49:01.602Z,66.59
2023-08-26T12:51:32.085Z,67.22
2023-08-26T12:54:01.522Z,68.07
2023-08-26T12:56:30.236Z,68.17
2023-08-26T12:58:58.591Z,68.40
2023-08-26T13:01:27.697Z,70.56
2023-08-26T13:03:58.709Z,72.78
2023-08-26T13:06:28.748Z,71.58
2023-08-26T13:08:57.296Z,73.28
2023-08-26T13:11:25.805Z,73.41
2023-08-26T13:13:55.089Z,71.75
2023-08-26T13:16:23.672Z,73.12
2023-08-26T13:18:52.440Z,74.33
2023-08-26T13:21:21.570Z,76.10
2023-08-26T13:23:50.163Z,73.25
2023-08-26T13:26:19.124Z,73.96
2023-08-26T13:28:48.419Z,74.95
2023-08-26T13:31:17.063Z,74.82
2023-08-26T13:33:45.968Z,74.84
2023-08-26T13:36:15.289Z,76.92
2023-08-26T13:38:43.848Z,75.98
2023-08-26T13:41:12.270Z,76.78
2023-08-26T13:43:40.920Z,74.87
2023-08-26T13:46:09.207Z,75.34
2023-08-26T13:48:37.939Z,75.99
2023-08-26T13:51:07.138Z,74.13
2023-08-26T13:53:35.901Z,75.25
2023-08-26T13:56:05.105Z,76.33
2023-08-26T13:58:34.595Z,75.67
2023-08-26T14:01:05.175Z,72.21
2023-08-26T14:03:34.892Z,74.76
2023-08-26T14:06:08.092Z,75.70
2023-08-26T14:08:37.317Z,74.16
2023-08-26T14:11:06.176Z,75.44
2023-08-26T14:13:35.298Z,73.85
2023-08-26T14:16:04.898Z,71.68
2023-08-26T14:18:33.826Z,71.97
2023-08-26T14:21:03.219Z,70.46
2023-08-26T14:23:32.063Z,69.33
2023-08-26T14:26:02.644Z,69.18
2023-08-26T14:28:31.819Z,68.41
2023-08-26T14:31:01.790Z,68.99
2023-08-26T14:33:31.082Z,66.42
2023-08-26T14:36:02.745Z,69.03
2023-08-26T14:38:32.509Z,71.32
2023-08-26T14:41:01.643Z,71.61
2023-08-26T14:43:31.520Z,73.46
2023-08-26T14:46:01.226Z,75.39
2023-08-26T14:48:34.591Z,76.54
2023-08-26T14:51:04.425Z,75.86
2023-08-26T14:53:34.117Z,71.23
2023-08-26T14:56:06.414Z,73.72
2023-08-26T14:58:36.251Z,74.56
2023-08-26T15:01:05.890Z,75.23
2023-08-26T15:03:34.965Z,75.29
2023-08-26T15:06:07.918Z,71.08
2023-08-26T15:08:37.547Z,70.99
2023-08-26T15:11:06.601Z,72.14
2023-08-26T15:13:35.720Z,73.48
2023-08-26T15:16:05.738Z,75.56
2023-08-26T15:18:36.808Z,74.91
2023-08-26T15:21:05.839Z,75.95
2023-08-26T15:23:34.451Z,76.78
2023-08-26T15:26:04.396Z,77.47
2023-08-26T15:28:33.849Z,79.24
2023-08-26T15:31:02.613Z,80.04
2023-08-26T15:33:32.126Z,80.58
2023-08-26T15:36:01.357Z,80.93
2023-08-26T15:38:30.310Z,79.47
2023-08-26T15:41:00.753Z,77.37
2023-08-26T15:43:32.321Z,78.06
2023-08-26T15:46:01.816Z,80.41
2023-08-26T15:48:31.387Z,80.57
2023-08-26T15:51:00.430Z,82.49
2023-08-26T15:53:29.444Z,80.28
2023-08-26T15:55:58.935Z,77.18
2023-08-26T15:58:28.290Z,76.99
2023-08-26T16:00:57.488Z,77.88
2023-08-26T16:03:27.225Z,76.28
2023-08-26T16:06:02.287Z,76.94
2023-08-26T16:08:31.769Z,77.80
2023-08-26T16:11:00.744Z,74.00
2023-08-26T16:13:29.936Z,71.38
2023-08-26T16:15:59.653Z,70.53
2023-08-26T16:18:28.564Z,75.27
2023-08-26T16:20:57.595Z,78.39
2023-08-26T16:23:26.649Z,75.39
2023-08-26T16:25:55.578Z,79.76
2023-08-26T16:28:25.785Z,77.70
2023-08-26T16:30:55.180Z,79.65
2023-08-26T16:33:24.466Z,79.41
2023-08-26T16:35:53.972Z,79.81
2023-08-26T16:38:23.663Z,75.89
2023-08-26T16:40:56.247Z,78.23
2023-08-26T16:43:28.639Z,75.94
2023-08-26T16:45:57.817Z,74.92
2023-08-26T16:48:27.668Z,72.65
2023-08-26T16:50:58.847Z,72.17
2023-08-26T16:53:28.463Z,72.19
2023-08-26T16:55:57.264Z,71.21
2023-08-26T16:58:26.571Z,71.80
2023-08-26T17:00:56.098Z,75.42
2023-08-26T17:03:26.852Z,73.12
2023-08-26T17:05:59.930Z,72.31
2023-08-26T17:08:33.696Z,72.64
2023-08-26T17:11:15.428Z,73.04
2023-08-26T17:13:45.167Z,73.60
2023-08-26T17:16:17.466Z,74.70
2023-08-26T17:18:46.945Z,74.53
2023-08-26T17:21:17.466Z,75.83
2023-08-26T17:23:48.209Z,79.69
2023-08-26T17:26:20.971Z,78.85
2023-08-26T17:28:52.489Z,78.99
2023-08-26T17:31:21.661Z,80.18
2023-08-26T17:33:51.855Z,79.62
2023-08-26T17:36:24.454Z,81.97
2023-08-26T17:38:57.343Z,81.88
2023-08-26T17:41:27.813Z,84.00
2023-08-26T17:44:01.186Z,81.53
2023-08-26T17:46:30.390Z,84.38
2023-08-26T17:49:02.212Z,86.09
2023-08-26T17:51:34.248Z,78.55
2023-08-26T17:54:04.278Z,78.78
2023-08-26T17:56:33.589Z,77.63
2023-08-26T17:59:09.581Z,77.99
2023-08-26T18:01:39.248Z,82.49
2023-08-26T18:04:09.775Z,78.41
2023-08-26T18:06:53.560Z,76.62
2023-08-26T18:09:24.117Z,76.82
2023-08-26T18:11:57.260Z,78.46
2023-08-26T18:14:28.075Z,77.25
2023-08-26T18:17:02.194Z,76.62
2023-08-26T18:19:37.972Z,78.70
2023-08-26T18:22:08.412Z,77.67
2023-08-26T18:24:45.972Z,78.16
2023-08-26T18:27:15.699Z,77.83
2023-08-26T18:29:46.527Z,77.01
2023-08-26T18:32:17.584Z,76.50
2023-08-26T18:34:47.772Z,76.33
2023-08-26T18:37:17.159Z,76.75
2023-08-26T18:39:50.724Z,76.43
2023-08-26T18:42:27.177Z,76.38
2023-08-26T18:44:57.541Z,76.46
2023-08-26T18:47:29.441Z,76.64
2023-08-26T18:49:59.726Z,76.75
2023-08-26T18:52:37.897Z,77.38
2023-08-26T18:55:15.149Z,77.24
2023-08-26T18:57:49.848Z,77.98
2023-08-26T19:00:23.285Z,78.73
2023-08-26T19:02:57.445Z,82.08
2023-08-26T19:05:29.023Z,84.73
2023-08-26T19:08:03.604Z,82.48
2023-08-26T19:10:34.891Z,81.16
2023-08-26T19:13:10.977Z,81.42
2023-08-26T19:15:44.865Z,80.61
2023-08-26T19:18:39.206Z,80.06
2023-08-26T19:21:09.797Z,84.11
2023-08-26T19:23:42.181Z,86.02
2023-08-26T19:26:22.995Z,84.53
2023-08-26T19:28:55.815Z,81.91
2023-08-26T19:31:25.321Z,81.73
2023-08-26T19:33:55.312Z,82.56
2023-08-26T19:36:27.502Z,82.18
2023-08-26T19:38:58.879Z,85.34
2023-08-26T19:41:28.568Z,89.24
2023-08-26T19:43:58.637Z,91.96
2023-08-26T19:46:28.119Z,90.84
2023-08-26T19:48:58.303Z,93.11
2023-08-26T19:51:28.041Z,95.48
2023-08-26T19:53:59.666Z,97.41
2023-08-26T19:56:29.486Z,100.00
2023-08-26T19:59:00.029Z,100.00
2023-08-26T20:01:31.136Z,100.00
2023-08-26T20:04:00.891Z,99.89
2023-08-26T20:06:30.149Z,100.00
2023-08-26T20:08:59.396Z,100.00
2023-08-26T20:11:29.018Z,100.00
2023-08-26T20:13:58.979Z,100.00
2023-08-26T20:16:31.561Z,100.00
2023-08-26T20:19:00.626Z,100.00
2023-08-26T20:21:30.243Z,100.00
2023-08-26T20:24:01.588Z,100.00
2023-08-26T20:26:38.000Z,100.00
2023-08-26T20:29:09.975Z,100.00
2023-08-26T20:31:39.334Z,100.00
2023-08-26T20:34:07.625Z,100.00
2023-08-26T20:36:45.439Z,100.00
2023-08-26T20:39:14.842Z,100.00
2023-08-26T20:41:46.305Z,100.00
2023-08-26T20:44:14.826Z,100.00
2023-08-26T20:46:43.061Z,100.00
2023-08-26T20:49:17.495Z,100.00
2023-08-26T20:51:46.072Z,100.00
2023-08-26T20:54:14.404Z,100.00
2023-08-26T20:56:42.720Z,100.00
2023-08-26T20:59:11.221Z,100.00
2023-08-26T21:01:39.189Z,100.00
2023-08-26T21:04:07.871Z,100.00
2023-08-26T21:06:36.270Z,100.00
2023-08-26T21:09:05.857Z,100.00
2023-08-26T21:11:34.898Z,100.00
2023-08-26T21:14:03.653Z,100.00
2023-08-26T21:16:32.214Z,100.00
2023-08-26T21:19:01.081Z,100.00
2023-08-26T21:21:29.786Z,100.00
2023-08-26T21:24:01.104Z,100.00
2023-08-26T21:26:29.917Z,100.00
2023-08-26T21:28:58.234Z,100.00
2023-08-26T21:31:26.501Z,100.00
2023-08-26T21:33:54.946Z,100.00
2023-08-26T21:36:24.496Z,100.00
2023-08-26T21:38:52.982Z,100.00
2023-08-26T21:41:21.502Z,100.00
2023-08-26T21:43:49.515Z,100.00
2023-08-26T21:46:17.643Z,100.00
2023-08-26T21:48:46.127Z,100.00
2023-08-26T21:51:14.150Z,100.00
2023-08-26T21:53:42.190Z,100.00
2023-08-26T21:56:10.785Z,100.00
2023-08-26T21:58:38.633Z,100.00
2023-08-26T22:01:06.661Z,100.00
2023-08-26T22:03:34.855Z,100.00
2023-08-26T22:06:03.133Z,100.00
2023-08-26T22:08:31.212Z,100.00
2023-08-26T22:10:59.769Z,100.00
2023-08-26T22:13:28.248Z,100.00
2023-08-26T22:15:57.033Z,100.00
2023-08-26T22:18:26.277Z,100.00
2023-08-26T22:20:55.405Z,100.00
2023-08-26T22:23:25.129Z,98.79
2023-08-26T22:25:53.856Z,99.27
2023-08-26T22:28:47.509Z,98.25
2023-08-26T22:31:16.801Z,100.00
2023-08-26T22:33:44.615Z,100.00
2023-08-26T22:36:12.790Z,100.00
2023-08-26T22:38:41.065Z,100.00
2023-08-26T22:41:08.955Z,100.00
2023-08-26T22:43:36.887Z,100.00
2023-08-26T22:46:05.125Z,100.00
2023-08-26T22:48:32.957Z,100.00
2023-08-26T22:51:00.763Z,100.00
2023-08-26T22:53:28.947Z,100.00
2023-08-26T22:55:56.902Z,100.00
2023-08-26T22:58:24.720Z,100.00
2023-08-26T23:00:53.022Z,100.00
2023-08-26T23:03:21.194Z,100.00
2023-08-26T23:05:49.141Z,100.00
2023-08-26T23:08:17.649Z,100.00
2023-08-26T23:10:45.573Z,100.00
2023-08-26T23:13:13.364Z,100.00
2023-08-26T23:15:42.538Z,100.00
2023-08-26T23:18:10.592Z,100.00
2023-08-26T23:20:38.490Z,100.00
2023-08-26T23:23:06.930Z,100.00
2023-08-26T23:25:34.945Z,100.00
2023-08-26T23:28:02.812Z,100.00
2023-08-26T23:30:30.943Z,100.00
2023-08-26T23:32:59.200Z,100.00
2023-08-26T23:35:27.567Z,100.00
2023-08-26T23:37:55.906Z,100.00
2023-08-26T23:40:23.931Z,100.00
2023-08-26T23:42:51.945Z,100.00
2023-08-26T23:45:20.306Z,100.00
2023-08-26T23:47:48.315Z,100.00
2023-08-26T23:50:16.523Z,100.00
2023-08-26T23:52:44.826Z,100.00
2023-08-26T23:55:12.706Z,100.00
2023-08-26T23:57:40.620Z,100.00
